sensor_id;sensor_type;location;lat;lon;timestamp;P1;durP1;ratioP1;P2;durP2;ratioP2
70705;SDS011;59320;52.316;10.870;2023-05-10T00:00:42;6.45;;;3.30;;
70705;SDS011;59320;52.316;10.870;2023-05-10T00:03:09;6.07;;;3.40;;
70705;SDS011;59320;52.316;10.870;2023-05-10T00:05:36;4.55;;;3.47;;
70705;SDS011;59320;52.316;10.870;2023-05-10T00:08:04;7.53;;;3.50;;
70705;SDS011;59320;52.316;10.870;2023-05-10T00:10:31;5.13;;;3.38;;
70705;SDS011;59320;52.316;10.870;2023-05-10T00:12:59;6.60;;;3.42;;
70705;SDS011;59320;52.316;10.870;2023-05-10T00:15:26;4.93;;;3.10;;
70705;SDS011;59320;52.316;10.870;2023-05-10T00:17:55;5.15;;;3.53;;
70705;SDS011;59320;52.316;10.870;2023-05-10T00:20:22;5.85;;;3.33;;
70705;SDS011;59320;52.316;10.870;2023-05-10T00:22:49;6.60;;;3.55;;
70705;SDS011;59320;52.316;10.870;2023-05-10T00:25:16;7.60;;;3.58;;
70705;SDS011;59320;52.316;10.870;2023-05-10T00:27:43;5.40;;;3.55;;
70705;SDS011;59320;52.316;10.870;2023-05-10T00:30:12;4.68;;;3.38;;
70705;SDS011;59320;52.316;10.870;2023-05-10T00:32:39;5.63;;;3.83;;
70705;SDS011;59320;52.316;10.870;2023-05-10T00:35:07;4.55;;;3.42;;
70705;SDS011;59320;52.316;10.870;2023-05-10T00:37:34;3.90;;;3.50;;
70705;SDS011;59320;52.316;10.870;2023-05-10T00:40:03;5.55;;;3.88;;
70705;SDS011;59320;52.316;10.870;2023-05-10T00:42:31;5.97;;;3.72;;
70705;SDS011;59320;52.316;10.870;2023-05-10T00:44:58;5.78;;;3.60;;
70705;SDS011;59320;52.316;10.870;2023-05-10T00:47:27;4.80;;;3.67;;
70705;SDS011;59320;52.316;10.870;2023-05-10T00:49:55;4.40;;;3.40;;
70705;SDS011;59320;52.316;10.870;2023-05-10T00:52:22;4.72;;;3.47;;
70705;SDS011;59320;52.316;10.870;2023-05-10T00:54:50;5.45;;;3.72;;
70705;SDS011;59320;52.316;10.870;2023-05-10T00:57:18;5.55;;;3.70;;
70705;SDS011;59320;52.316;10.870;2023-05-10T00:59:45;3.97;;;3.30;;
70705;SDS011;59320;52.316;10.870;2023-05-10T01:02:12;8.00;;;3.78;;
70705;SDS011;59320;52.316;10.870;2023-05-10T01:04:41;6.00;;;4.13;;
70705;SDS011;59320;52.316;10.870;2023-05-10T01:07:09;4.38;;;3.50;;
70705;SDS011;59320;52.316;10.870;2023-05-10T01:09:37;5.25;;;3.35;;
70705;SDS011;59320;52.316;10.870;2023-05-10T01:12:05;5.03;;;3.30;;
70705;SDS011;59320;52.316;10.870;2023-05-10T01:14:33;7.75;;;3.58;;
70705;SDS011;59320;52.316;10.870;2023-05-10T01:17:01;4.80;;;3.50;;
70705;SDS011;59320;52.316;10.870;2023-05-10T01:19:29;6.45;;;3.25;;
70705;SDS011;59320;52.316;10.870;2023-05-10T01:22:05;5.47;;;3.95;;
70705;SDS011;59320;52.316;10.870;2023-05-10T01:24:57;4.40;;;3.42;;
70705;SDS011;59320;52.316;10.870;2023-05-10T01:27:41;4.78;;;3.45;;
70705;SDS011;59320;52.316;10.870;2023-05-10T01:33:23;4.85;;;3.60;;
70705;SDS011;59320;52.316;10.870;2023-05-10T01:35:58;3.97;;;3.58;;
70705;SDS011;59320;52.316;10.870;2023-05-10T01:38:33;5.22;;;3.97;;
70705;SDS011;59320;52.316;10.870;2023-05-10T01:41:10;4.70;;;3.55;;
70705;SDS011;59320;52.316;10.870;2023-05-10T01:43:43;5.15;;;3.70;;
70705;SDS011;59320;52.316;10.870;2023-05-10T01:46:20;4.50;;;3.80;;
70705;SDS011;59320;52.316;10.870;2023-05-10T01:48:55;4.50;;;3.50;;
70705;SDS011;59320;52.316;10.870;2023-05-10T01:51:27;4.72;;;3.67;;
70705;SDS011;59320;52.316;10.870;2023-05-10T01:54:02;6.70;;;3.80;;
70705;SDS011;59320;52.316;10.870;2023-05-10T01:56:31;3.88;;;3.47;;
70705;SDS011;59320;52.316;10.870;2023-05-10T01:59:03;4.13;;;3.60;;
70705;SDS011;59320;52.316;10.870;2023-05-10T02:04:04;4.47;;;3.60;;
70705;SDS011;59320;52.316;10.870;2023-05-10T02:06:32;5.10;;;3.83;;
70705;SDS011;59320;52.316;10.870;2023-05-10T02:11:29;4.30;;;3.83;;
70705;SDS011;59320;52.316;10.870;2023-05-10T02:13:57;6.43;;;4.00;;
70705;SDS011;59320;52.316;10.870;2023-05-10T02:16:28;6.38;;;3.95;;
70705;SDS011;59320;52.316;10.870;2023-05-10T02:18:57;5.35;;;3.70;;
70705;SDS011;59320;52.316;10.870;2023-05-10T02:21:27;4.63;;;4.00;;
70705;SDS011;59320;52.316;10.870;2023-05-10T02:23:56;6.15;;;4.22;;
70705;SDS011;59320;52.316;10.870;2023-05-10T02:26:24;6.15;;;3.63;;
70705;SDS011;59320;52.316;10.870;2023-05-10T02:28:52;4.93;;;3.80;;
70705;SDS011;59320;52.316;10.870;2023-05-10T02:31:21;4.15;;;3.75;;
70705;SDS011;59320;52.316;10.870;2023-05-10T02:33:49;6.75;;;3.70;;
70705;SDS011;59320;52.316;10.870;2023-05-10T02:36:17;6.57;;;3.75;;
70705;SDS011;59320;52.316;10.870;2023-05-10T02:38:47;4.97;;;3.70;;
70705;SDS011;59320;52.316;10.870;2023-05-10T02:41:17;5.80;;;4.25;;
70705;SDS011;59320;52.316;10.870;2023-05-10T02:43:48;5.45;;;3.70;;
70705;SDS011;59320;52.316;10.870;2023-05-10T02:46:17;4.10;;;3.70;;
70705;SDS011;59320;52.316;10.870;2023-05-10T02:48:44;8.90;;;4.30;;
70705;SDS011;59320;52.316;10.870;2023-05-10T02:51:11;7.70;;;4.03;;
70705;SDS011;59320;52.316;10.870;2023-05-10T02:53:43;5.13;;;3.88;;
70705;SDS011;59320;52.316;10.870;2023-05-10T02:56:14;5.25;;;4.00;;
70705;SDS011;59320;52.316;10.870;2023-05-10T02:58:46;5.78;;;4.00;;
70705;SDS011;59320;52.316;10.870;2023-05-10T03:01:13;5.30;;;3.88;;
70705;SDS011;59320;52.316;10.870;2023-05-10T03:03:41;5.03;;;4.35;;
70705;SDS011;59320;52.316;10.870;2023-05-10T03:06:08;4.50;;;3.85;;
70705;SDS011;59320;52.316;10.870;2023-05-10T03:08:35;5.82;;;4.30;;
70705;SDS011;59320;52.316;10.870;2023-05-10T03:11:08;4.70;;;4.07;;
70705;SDS011;59320;52.316;10.870;2023-05-10T03:13:54;7.95;;;4.43;;
70705;SDS011;59320;52.316;10.870;2023-05-10T03:16:29;6.20;;;4.18;;
70705;SDS011;59320;52.316;10.870;2023-05-10T03:19:03;4.80;;;4.23;;
70705;SDS011;59320;52.316;10.870;2023-05-10T03:21:38;6.15;;;4.18;;
70705;SDS011;59320;52.316;10.870;2023-05-10T03:24:09;5.75;;;4.15;;
70705;SDS011;59320;52.316;10.870;2023-05-10T03:26:44;5.47;;;4.30;;
70705;SDS011;59320;52.316;10.870;2023-05-10T03:29:15;6.57;;;4.00;;
70705;SDS011;59320;52.316;10.870;2023-05-10T03:31:43;9.13;;;4.30;;
70705;SDS011;59320;52.316;10.870;2023-05-10T03:34:13;4.88;;;3.90;;
70705;SDS011;59320;52.316;10.870;2023-05-10T03:36:40;4.80;;;4.28;;
70705;SDS011;59320;52.316;10.870;2023-05-10T03:39:08;5.53;;;4.25;;
70705;SDS011;59320;52.316;10.870;2023-05-10T03:41:36;5.68;;;4.32;;
70705;SDS011;59320;52.316;10.870;2023-05-10T03:44:04;8.00;;;4.00;;
70705;SDS011;59320;52.316;10.870;2023-05-10T03:46:31;5.90;;;3.88;;
70705;SDS011;59320;52.316;10.870;2023-05-10T03:48:59;6.88;;;4.20;;
70705;SDS011;59320;52.316;10.870;2023-05-10T03:51:26;7.25;;;4.03;;
70705;SDS011;59320;52.316;10.870;2023-05-10T03:53:53;5.30;;;4.20;;
70705;SDS011;59320;52.316;10.870;2023-05-10T03:56:21;4.43;;;3.95;;
70705;SDS011;59320;52.316;10.870;2023-05-10T03:58:48;5.47;;;4.10;;
70705;SDS011;59320;52.316;10.870;2023-05-10T04:01:16;4.65;;;4.05;;
70705;SDS011;59320;52.316;10.870;2023-05-10T04:03:43;4.80;;;4.35;;
70705;SDS011;59320;52.316;10.870;2023-05-10T04:06:11;8.57;;;4.47;;
70705;SDS011;59320;52.316;10.870;2023-05-10T04:08:38;5.32;;;4.18;;
70705;SDS011;59320;52.316;10.870;2023-05-10T04:11:05;5.75;;;4.00;;
70705;SDS011;59320;52.316;10.870;2023-05-10T04:13:33;5.32;;;3.97;;
70705;SDS011;59320;52.316;10.870;2023-05-10T04:16:00;5.88;;;3.78;;
70705;SDS011;59320;52.316;10.870;2023-05-10T04:18:29;5.03;;;4.43;;
70705;SDS011;59320;52.316;10.870;2023-05-10T04:20:56;5.60;;;4.00;;
70705;SDS011;59320;52.316;10.870;2023-05-10T04:23:23;4.95;;;3.90;;
70705;SDS011;59320;52.316;10.870;2023-05-10T04:25:51;5.65;;;4.10;;
70705;SDS011;59320;52.316;10.870;2023-05-10T04:28:18;4.70;;;4.20;;
70705;SDS011;59320;52.316;10.870;2023-05-10T04:30:45;4.60;;;3.65;;
70705;SDS011;59320;52.316;10.870;2023-05-10T04:33:12;4.43;;;3.97;;
70705;SDS011;59320;52.316;10.870;2023-05-10T04:35:42;5.88;;;3.88;;
70705;SDS011;59320;52.316;10.870;2023-05-10T04:38:09;5.03;;;4.20;;
70705;SDS011;59320;52.316;10.870;2023-05-10T04:40:36;5.63;;;4.10;;
70705;SDS011;59320;52.316;10.870;2023-05-10T04:43:04;7.70;;;4.20;;
70705;SDS011;59320;52.316;10.870;2023-05-10T04:45:31;6.03;;;4.50;;
70705;SDS011;59320;52.316;10.870;2023-05-10T04:47:58;5.07;;;4.10;;
70705;SDS011;59320;52.316;10.870;2023-05-10T04:50:25;6.72;;;4.05;;
70705;SDS011;59320;52.316;10.870;2023-05-10T04:52:53;14.77;;;4.70;;
70705;SDS011;59320;52.316;10.870;2023-05-10T04:55:20;5.55;;;4.00;;
70705;SDS011;59320;52.316;10.870;2023-05-10T04:57:47;4.68;;;4.03;;
70705;SDS011;59320;52.316;10.870;2023-05-10T05:00:15;6.43;;;4.47;;
70705;SDS011;59320;52.316;10.870;2023-05-10T05:02:42;6.07;;;4.65;;
70705;SDS011;59320;52.316;10.870;2023-05-10T05:05:11;5.53;;;4.22;;
70705;SDS011;59320;52.316;10.870;2023-05-10T05:07:38;6.22;;;4.10;;
70705;SDS011;59320;52.316;10.870;2023-05-10T05:10:07;6.70;;;3.78;;
70705;SDS011;59320;52.316;10.870;2023-05-10T05:12:35;4.28;;;3.70;;
70705;SDS011;59320;52.316;10.870;2023-05-10T05:15:02;5.28;;;4.05;;
70705;SDS011;59320;52.316;10.870;2023-05-10T05:17:29;5.75;;;4.35;;
70705;SDS011;59320;52.316;10.870;2023-05-10T05:19:56;6.78;;;3.92;;
70705;SDS011;59320;52.316;10.870;2023-05-10T05:22:23;7.72;;;4.30;;
70705;SDS011;59320;52.316;10.870;2023-05-10T05:24:53;5.65;;;4.55;;
70705;SDS011;59320;52.316;10.870;2023-05-10T05:27:21;5.78;;;4.38;;
70705;SDS011;59320;52.316;10.870;2023-05-10T05:29:49;6.85;;;4.35;;
70705;SDS011;59320;52.316;10.870;2023-05-10T05:32:16;5.38;;;4.30;;
70705;SDS011;59320;52.316;10.870;2023-05-10T05:34:44;5.45;;;4.10;;
70705;SDS011;59320;52.316;10.870;2023-05-10T05:37:12;5.40;;;3.92;;
70705;SDS011;59320;52.316;10.870;2023-05-10T05:39:40;4.97;;;4.03;;
70705;SDS011;59320;52.316;10.870;2023-05-10T05:42:08;7.43;;;4.38;;
70705;SDS011;59320;52.316;10.870;2023-05-10T05:44:36;6.10;;;4.20;;
70705;SDS011;59320;52.316;10.870;2023-05-10T05:47:04;6.97;;;3.83;;
70705;SDS011;59320;52.316;10.870;2023-05-10T05:52:05;6.32;;;4.35;;
70705;SDS011;59320;52.316;10.870;2023-05-10T05:54:33;10.82;;;4.32;;
70705;SDS011;59320;52.316;10.870;2023-05-10T05:57:04;6.63;;;4.25;;
70705;SDS011;59320;52.316;10.870;2023-05-10T05:59:31;5.68;;;4.22;;
70705;SDS011;59320;52.316;10.870;2023-05-10T06:01:59;6.60;;;4.00;;
70705;SDS011;59320;52.316;10.870;2023-05-10T06:04:26;5.28;;;4.47;;
70705;SDS011;59320;52.316;10.870;2023-05-10T06:06:53;4.78;;;4.38;;
70705;SDS011;59320;52.316;10.870;2023-05-10T06:09:20;6.43;;;4.20;;
70705;SDS011;59320;52.316;10.870;2023-05-10T06:11:49;5.18;;;4.07;;
70705;SDS011;59320;52.316;10.870;2023-05-10T06:14:16;4.57;;;4.13;;
70705;SDS011;59320;52.316;10.870;2023-05-10T06:16:43;5.10;;;4.20;;
70705;SDS011;59320;52.316;10.870;2023-05-10T06:19:11;6.00;;;4.15;;
70705;SDS011;59320;52.316;10.870;2023-05-10T06:21:38;6.22;;;4.43;;
70705;SDS011;59320;52.316;10.870;2023-05-10T06:24:05;5.65;;;4.45;;
70705;SDS011;59320;52.316;10.870;2023-05-10T06:26:33;5.72;;;3.83;;
70705;SDS011;59320;52.316;10.870;2023-05-10T06:29:00;6.18;;;4.10;;
70705;SDS011;59320;52.316;10.870;2023-05-10T06:31:27;6.45;;;4.07;;
70705;SDS011;59320;52.316;10.870;2023-05-10T06:33:54;5.40;;;4.35;;
70705;SDS011;59320;52.316;10.870;2023-05-10T06:36:22;7.88;;;4.00;;
70705;SDS011;59320;52.316;10.870;2023-05-10T06:38:51;6.57;;;4.32;;
70705;SDS011;59320;52.316;10.870;2023-05-10T06:41:18;5.97;;;3.97;;
70705;SDS011;59320;52.316;10.870;2023-05-10T06:43:45;5.78;;;3.78;;
70705;SDS011;59320;52.316;10.870;2023-05-10T06:46:12;6.07;;;4.38;;
70705;SDS011;59320;52.316;10.870;2023-05-10T06:48:39;5.68;;;4.18;;
70705;SDS011;59320;52.316;10.870;2023-05-10T06:51:06;6.97;;;4.47;;
70705;SDS011;59320;52.316;10.870;2023-05-10T06:53:35;6.20;;;4.38;;
70705;SDS011;59320;52.316;10.870;2023-05-10T06:56:02;5.22;;;4.15;;
70705;SDS011;59320;52.316;10.870;2023-05-10T06:58:29;8.15;;;4.20;;
70705;SDS011;59320;52.316;10.870;2023-05-10T07:01:01;5.80;;;4.28;;
70705;SDS011;59320;52.316;10.870;2023-05-10T07:03:29;5.65;;;4.55;;
70705;SDS011;59320;52.316;10.870;2023-05-10T07:05:59;6.13;;;3.85;;
70705;SDS011;59320;52.316;10.870;2023-05-10T07:08:29;5.07;;;4.20;;
70705;SDS011;59320;52.316;10.870;2023-05-10T07:11:00;5.45;;;4.35;;
70705;SDS011;59320;52.316;10.870;2023-05-10T07:13:28;7.45;;;4.00;;
70705;SDS011;59320;52.316;10.870;2023-05-10T07:15:56;4.63;;;4.13;;
70705;SDS011;59320;52.316;10.870;2023-05-10T07:18:23;4.55;;;4.15;;
70705;SDS011;59320;52.316;10.870;2023-05-10T07:20:51;5.18;;;3.78;;
70705;SDS011;59320;52.316;10.870;2023-05-10T07:23:18;4.53;;;4.05;;
70705;SDS011;59320;52.316;10.870;2023-05-10T07:25:45;5.07;;;4.22;;
70705;SDS011;59320;52.316;10.870;2023-05-10T07:28:14;11.45;;;4.45;;
70705;SDS011;59320;52.316;10.870;2023-05-10T07:30:42;6.35;;;4.28;;
70705;SDS011;59320;52.316;10.870;2023-05-10T07:33:10;6.20;;;4.57;;
70705;SDS011;59320;52.316;10.870;2023-05-10T07:35:39;5.55;;;3.90;;
70705;SDS011;59320;52.316;10.870;2023-05-10T07:38:06;6.47;;;4.05;;
70705;SDS011;59320;52.316;10.870;2023-05-10T07:40:33;9.02;;;4.50;;
70705;SDS011;59320;52.316;10.870;2023-05-10T07:43:00;7.35;;;4.60;;
70705;SDS011;59320;52.316;10.870;2023-05-10T07:45:29;4.40;;;4.00;;
70705;SDS011;59320;52.316;10.870;2023-05-10T07:47:56;6.55;;;4.18;;
70705;SDS011;59320;52.316;10.870;2023-05-10T07:50:23;7.90;;;4.55;;
70705;SDS011;59320;52.316;10.870;2023-05-10T07:52:50;6.80;;;4.55;;
70705;SDS011;59320;52.316;10.870;2023-05-10T07:55:18;7.47;;;4.32;;
70705;SDS011;59320;52.316;10.870;2023-05-10T07:57:46;7.18;;;3.97;;
70705;SDS011;59320;52.316;10.870;2023-05-10T08:00:13;5.03;;;3.95;;
70705;SDS011;59320;52.316;10.870;2023-05-10T08:02:45;4.28;;;3.67;;
70705;SDS011;59320;52.316;10.870;2023-05-10T08:05:12;4.47;;;3.58;;
70705;SDS011;59320;52.316;10.870;2023-05-10T08:07:40;4.60;;;3.90;;
70705;SDS011;59320;52.316;10.870;2023-05-10T08:10:08;6.00;;;4.03;;
70705;SDS011;59320;52.316;10.870;2023-05-10T08:12:36;6.53;;;4.15;;
70705;SDS011;59320;52.316;10.870;2023-05-10T08:15:04;4.10;;;3.70;;
70705;SDS011;59320;52.316;10.870;2023-05-10T08:17:32;5.75;;;3.92;;
70705;SDS011;59320;52.316;10.870;2023-05-10T08:20:00;4.47;;;3.92;;
70705;SDS011;59320;52.316;10.870;2023-05-10T08:22:28;6.60;;;4.45;;
70705;SDS011;59320;52.316;10.870;2023-05-10T08:24:55;5.03;;;4.05;;
70705;SDS011;59320;52.316;10.870;2023-05-10T08:27:22;5.20;;;4.38;;
70705;SDS011;59320;52.316;10.870;2023-05-10T08:29:49;8.38;;;4.45;;
70705;SDS011;59320;52.316;10.870;2023-05-10T08:32:16;4.80;;;4.30;;
70705;SDS011;59320;52.316;10.870;2023-05-10T08:34:43;6.57;;;4.65;;
70705;SDS011;59320;52.316;10.870;2023-05-10T08:37:11;5.10;;;4.47;;
70705;SDS011;59320;52.316;10.870;2023-05-10T08:39:38;6.13;;;4.72;;
70705;SDS011;59320;52.316;10.870;2023-05-10T08:42:05;10.15;;;4.68;;
70705;SDS011;59320;52.316;10.870;2023-05-10T08:44:35;5.43;;;4.47;;
70705;SDS011;59320;52.316;10.870;2023-05-10T08:47:04;5.05;;;4.53;;
70705;SDS011;59320;52.316;10.870;2023-05-10T08:49:32;5.07;;;4.45;;
70705;SDS011;59320;52.316;10.870;2023-05-10T08:52:02;6.35;;;4.20;;
70705;SDS011;59320;52.316;10.870;2023-05-10T08:54:34;8.60;;;4.85;;
70705;SDS011;59320;52.316;10.870;2023-05-10T08:57:02;5.50;;;4.57;;
70705;SDS011;59320;52.316;10.870;2023-05-10T08:59:30;7.30;;;4.40;;
70705;SDS011;59320;52.316;10.870;2023-05-10T09:01:58;6.78;;;4.28;;
70705;SDS011;59320;52.316;10.870;2023-05-10T09:04:25;4.97;;;3.30;;
70705;SDS011;59320;52.316;10.870;2023-05-10T09:06:52;4.90;;;3.50;;
70705;SDS011;59320;52.316;10.870;2023-05-10T09:09:21;7.95;;;3.58;;
70705;SDS011;59320;52.316;10.870;2023-05-10T09:11:50;5.43;;;3.50;;
70705;SDS011;59320;52.316;10.870;2023-05-10T09:14:17;3.88;;;3.50;;
70705;SDS011;59320;52.316;10.870;2023-05-10T09:16:46;3.60;;;3.17;;
70705;SDS011;59320;52.316;10.870;2023-05-10T09:19:13;6.22;;;3.17;;
70705;SDS011;59320;52.316;10.870;2023-05-10T09:21:40;3.50;;;3.20;;
70705;SDS011;59320;52.316;10.870;2023-05-10T09:24:08;3.85;;;3.30;;
70705;SDS011;59320;52.316;10.870;2023-05-10T09:26:35;3.92;;;3.10;;
70705;SDS011;59320;52.316;10.870;2023-05-10T09:29:13;4.18;;;3.38;;
70705;SDS011;59320;52.316;10.870;2023-05-10T09:31:43;5.55;;;3.45;;
70705;SDS011;59320;52.316;10.870;2023-05-10T09:34:15;3.53;;;3.22;;
70705;SDS011;59320;52.316;10.870;2023-05-10T09:36:51;3.70;;;3.40;;
70705;SDS011;59320;52.316;10.870;2023-05-10T09:39:19;3.92;;;3.53;;
70705;SDS011;59320;52.316;10.870;2023-05-10T09:41:46;4.15;;;3.50;;
70705;SDS011;59320;52.316;10.870;2023-05-10T09:44:17;5.38;;;3.50;;
70705;SDS011;59320;52.316;10.870;2023-05-10T09:46:48;3.45;;;3.15;;
70705;SDS011;59320;52.316;10.870;2023-05-10T09:49:18;4.72;;;3.22;;
70705;SDS011;59320;52.316;10.870;2023-05-10T09:51:45;4.13;;;3.65;;
70705;SDS011;59320;52.316;10.870;2023-05-10T09:54:13;4.90;;;3.60;;
70705;SDS011;59320;52.316;10.870;2023-05-10T09:56:41;4.43;;;3.17;;
70705;SDS011;59320;52.316;10.870;2023-05-10T09:59:09;5.18;;;3.88;;
70705;SDS011;59320;52.316;10.870;2023-05-10T10:01:38;6.13;;;4.00;;
70705;SDS011;59320;52.316;10.870;2023-05-10T10:04:08;4.53;;;3.40;;
70705;SDS011;59320;52.316;10.870;2023-05-10T10:06:36;3.55;;;3.25;;
70705;SDS011;59320;52.316;10.870;2023-05-10T10:09:03;6.10;;;3.30;;
70705;SDS011;59320;52.316;10.870;2023-05-10T10:11:31;4.10;;;3.65;;
70705;SDS011;59320;52.316;10.870;2023-05-10T10:13:58;4.25;;;3.85;;
70705;SDS011;59320;52.316;10.870;2023-05-10T10:16:26;5.22;;;4.55;;
70705;SDS011;59320;52.316;10.870;2023-05-10T10:18:56;4.93;;;4.53;;
70705;SDS011;59320;52.316;10.870;2023-05-10T10:21:23;5.85;;;4.85;;
70705;SDS011;59320;52.316;10.870;2023-05-10T10:23:51;5.30;;;4.80;;
70705;SDS011;59320;52.316;10.870;2023-05-10T10:26:18;5.30;;;4.80;;
70705;SDS011;59320;52.316;10.870;2023-05-10T10:28:48;5.63;;;5.05;;
70705;SDS011;59320;52.316;10.870;2023-05-10T10:31:25;6.32;;;4.90;;
70705;SDS011;59320;52.316;10.870;2023-05-10T10:36:30;5.10;;;4.60;;
70705;SDS011;59320;52.316;10.870;2023-05-10T10:38:59;5.65;;;4.90;;
70705;SDS011;59320;52.316;10.870;2023-05-10T10:41:30;4.88;;;4.45;;
70705;SDS011;59320;52.316;10.870;2023-05-10T10:47:08;4.50;;;4.10;;
70705;SDS011;59320;52.316;10.870;2023-05-10T10:50:01;4.95;;;4.15;;
70705;SDS011;59320;52.316;10.870;2023-05-10T10:52:30;4.40;;;4.00;;
70705;SDS011;59320;52.316;10.870;2023-05-10T10:55:01;4.38;;;3.47;;
70705;SDS011;59320;52.316;10.870;2023-05-10T10:57:31;3.80;;;3.50;;
70705;SDS011;59320;52.316;10.870;2023-05-10T11:00:18;4.35;;;3.95;;
70705;SDS011;59320;52.316;10.870;2023-05-10T11:02:47;4.32;;;3.80;;
70705;SDS011;59320;52.316;10.870;2023-05-10T11:08:10;4.43;;;3.38;;
70705;SDS011;59320;52.316;10.870;2023-05-10T11:10:40;4.10;;;3.30;;
70705;SDS011;59320;52.316;10.870;2023-05-10T11:13:17;3.45;;;3.15;;
70705;SDS011;59320;52.316;10.870;2023-05-10T11:15:54;3.83;;;2.80;;
70705;SDS011;59320;52.316;10.870;2023-05-10T11:18:24;3.33;;;2.55;;
70705;SDS011;59320;52.316;10.870;2023-05-10T11:20:56;3.15;;;2.75;;
70705;SDS011;59320;52.316;10.870;2023-05-10T11:23:29;3.03;;;2.55;;
70705;SDS011;59320;52.316;10.870;2023-05-10T11:25:57;2.30;;;2.10;;
70705;SDS011;59320;52.316;10.870;2023-05-10T11:28:25;3.53;;;2.20;;
70705;SDS011;59320;52.316;10.870;2023-05-10T11:30:53;2.40;;;2.20;;
70705;SDS011;59320;52.316;10.870;2023-05-10T11:33:21;2.03;;;1.83;;
70705;SDS011;59320;52.316;10.870;2023-05-10T11:35:48;2.20;;;1.83;;
70705;SDS011;59320;52.316;10.870;2023-05-10T11:38:17;7.72;;;2.10;;
70705;SDS011;59320;52.316;10.870;2023-05-10T11:40:44;2.90;;;1.92;;
70705;SDS011;59320;52.316;10.870;2023-05-10T11:43:11;2.40;;;1.52;;
70705;SDS011;59320;52.316;10.870;2023-05-10T11:45:39;2.42;;;1.45;;
70705;SDS011;59320;52.316;10.870;2023-05-10T11:48:08;1.85;;;1.60;;
70705;SDS011;59320;52.316;10.870;2023-05-10T11:50:35;2.22;;;1.60;;
70705;SDS011;59320;52.316;10.870;2023-05-10T11:53:02;2.25;;;1.35;;
70705;SDS011;59320;52.316;10.870;2023-05-10T11:55:33;1.20;;;0.93;;
70705;SDS011;59320;52.316;10.870;2023-05-10T11:58:00;2.08;;;0.90;;
70705;SDS011;59320;52.316;10.870;2023-05-10T12:00:29;1.45;;;0.75;;
70705;SDS011;59320;52.316;10.870;2023-05-10T12:02:56;2.33;;;1.00;;
70705;SDS011;59320;52.316;10.870;2023-05-10T12:05:24;1.30;;;0.90;;
70705;SDS011;59320;52.316;10.870;2023-05-10T12:07:51;2.38;;;1.10;;
70705;SDS011;59320;52.316;10.870;2023-05-10T12:10:24;1.98;;;0.90;;
70705;SDS011;59320;52.316;10.870;2023-05-10T12:12:54;1.35;;;1.00;;
70705;SDS011;59320;52.316;10.870;2023-05-10T12:15:23;1.10;;;1.00;;
70705;SDS011;59320;52.316;10.870;2023-05-10T12:17:50;1.45;;;1.00;;
70705;SDS011;59320;52.316;10.870;2023-05-10T12:20:18;0.80;;;0.80;;
70705;SDS011;59320;52.316;10.870;2023-05-10T12:22:47;1.48;;;0.88;;
70705;SDS011;59320;52.316;10.870;2023-05-10T12:25:16;2.47;;;1.17;;
70705;SDS011;59320;52.316;10.870;2023-05-10T12:27:54;0.73;;;0.73;;
70705;SDS011;59320;52.316;10.870;2023-05-10T12:30:23;1.50;;;0.93;;
70705;SDS011;59320;52.316;10.870;2023-05-10T12:32:51;2.97;;;0.82;;
70705;SDS011;59320;52.316;10.870;2023-05-10T12:35:18;1.10;;;1.00;;
70705;SDS011;59320;52.316;10.870;2023-05-10T12:37:47;1.00;;;0.68;;
70705;SDS011;59320;52.316;10.870;2023-05-10T12:40:14;2.75;;;1.05;;
70705;SDS011;59320;52.316;10.870;2023-05-10T12:42:41;0.82;;;0.73;;
70705;SDS011;59320;52.316;10.870;2023-05-10T12:45:11;2.05;;;0.65;;
70705;SDS011;59320;52.316;10.870;2023-05-10T12:47:38;1.15;;;1.00;;
70705;SDS011;59320;52.316;10.870;2023-05-10T12:50:06;2.55;;;1.10;;
70705;SDS011;59320;52.316;10.870;2023-05-10T12:52:33;0.90;;;0.70;;
70705;SDS011;59320;52.316;10.870;2023-05-10T12:55:01;2.60;;;1.25;;
70705;SDS011;59320;52.316;10.870;2023-05-10T12:57:28;1.00;;;0.93;;
70705;SDS011;59320;52.316;10.870;2023-05-10T12:59:55;2.08;;;0.90;;
70705;SDS011;59320;52.316;10.870;2023-05-10T13:02:24;2.05;;;1.30;;
70705;SDS011;59320;52.316;10.870;2023-05-10T13:04:51;2.45;;;1.00;;
70705;SDS011;59320;52.316;10.870;2023-05-10T13:07:18;1.13;;;0.80;;
70705;SDS011;59320;52.316;10.870;2023-05-10T13:09:46;2.00;;;1.35;;
70705;SDS011;59320;52.316;10.870;2023-05-10T13:12:13;1.45;;;1.00;;
70705;SDS011;59320;52.316;10.870;2023-05-10T13:14:40;2.38;;;0.90;;
70705;SDS011;59320;52.316;10.870;2023-05-10T13:17:07;1.00;;;0.80;;
70705;SDS011;59320;52.316;10.870;2023-05-10T13:19:35;1.42;;;1.10;;
70705;SDS011;59320;52.316;10.870;2023-05-10T13:22:02;3.10;;;2.90;;
70705;SDS011;59320;52.316;10.870;2023-05-10T13:24:30;4.88;;;4.38;;
70705;SDS011;59320;52.316;10.870;2023-05-10T13:26:57;5.65;;;4.65;;
70705;SDS011;59320;52.316;10.870;2023-05-10T13:29:25;2.53;;;1.52;;
70705;SDS011;59320;52.316;10.870;2023-05-10T13:31:53;3.45;;;2.20;;
70705;SDS011;59320;52.316;10.870;2023-05-10T13:34:20;1.00;;;0.90;;
70705;SDS011;59320;52.316;10.870;2023-05-10T13:36:48;1.25;;;0.80;;
70705;SDS011;59320;52.316;10.870;2023-05-10T13:39:15;5.57;;;4.20;;
70705;SDS011;59320;52.316;10.870;2023-05-10T13:41:43;1.70;;;1.60;;
70705;SDS011;59320;52.316;10.870;2023-05-10T13:44:11;0.70;;;0.50;;
70705;SDS011;59320;52.316;10.870;2023-05-10T13:46:39;0.70;;;0.50;;
70705;SDS011;59320;52.316;10.870;2023-05-10T13:49:06;0.85;;;0.50;;
70705;SDS011;59320;52.316;10.870;2023-05-10T13:51:33;1.25;;;1.15;;
70705;SDS011;59320;52.316;10.870;2023-05-10T13:54:02;1.92;;;0.80;;
70705;SDS011;59320;52.316;10.870;2023-05-10T13:56:29;0.95;;;0.70;;
70705;SDS011;59320;52.316;10.870;2023-05-10T13:58:57;1.08;;;0.60;;
70705;SDS011;59320;52.316;10.870;2023-05-10T14:01:24;0.88;;;0.55;;
70705;SDS011;59320;52.316;10.870;2023-05-10T14:03:51;1.15;;;0.50;;
70705;SDS011;59320;52.316;10.870;2023-05-10T14:06:18;0.85;;;0.50;;
70705;SDS011;59320;52.316;10.870;2023-05-10T14:08:48;1.80;;;0.60;;
70705;SDS011;59320;52.316;10.870;2023-05-10T14:11:20;2.13;;;0.63;;
70705;SDS011;59320;52.316;10.870;2023-05-10T14:13:47;2.25;;;0.80;;
70705;SDS011;59320;52.316;10.870;2023-05-10T14:16:14;0.60;;;0.60;;
70705;SDS011;59320;52.316;10.870;2023-05-10T14:18:41;2.30;;;1.70;;
70705;SDS011;59320;52.316;10.870;2023-05-10T14:21:08;1.90;;;1.33;;
70705;SDS011;59320;52.316;10.870;2023-05-10T14:23:37;2.13;;;0.70;;
70705;SDS011;59320;52.316;10.870;2023-05-10T14:26:04;16.02;;;13.88;;
70705;SDS011;59320;52.316;10.870;2023-05-10T14:28:33;3.92;;;3.53;;
70705;SDS011;59320;52.316;10.870;2023-05-10T14:31:00;1.40;;;1.13;;
70705;SDS011;59320;52.316;10.870;2023-05-10T14:33:27;3.15;;;2.88;;
70705;SDS011;59320;52.316;10.870;2023-05-10T14:35:54;5.40;;;4.90;;
70705;SDS011;59320;52.316;10.870;2023-05-10T14:38:22;10.05;;;9.25;;
70705;SDS011;59320;52.316;10.870;2023-05-10T14:40:49;5.82;;;5.25;;
70705;SDS011;59320;52.316;10.870;2023-05-10T14:43:16;1.05;;;0.80;;
70705;SDS011;59320;52.316;10.870;2023-05-10T14:45:46;1.20;;;0.63;;
70705;SDS011;59320;52.316;10.870;2023-05-10T14:48:13;1.20;;;0.50;;
70705;SDS011;59320;52.316;10.870;2023-05-10T14:50:42;0.65;;;0.45;;
70705;SDS011;59320;52.316;10.870;2023-05-10T14:53:09;0.30;;;0.20;;
70705;SDS011;59320;52.316;10.870;2023-05-10T14:55:36;0.65;;;0.50;;
70705;SDS011;59320;52.316;10.870;2023-05-10T14:58:04;0.55;;;0.50;;
70705;SDS011;59320;52.316;10.870;2023-05-10T15:00:31;1.30;;;0.30;;